Terminal Aerodrome Forecast
Issued by NWS

Home | Current Version | Previous Version | Graphics & Text | Print | Product List | Glossary On
Versions: 1 2 3 4 5 6 7 8 9 10 11 12 13 14 15 16 17 18 19 20 21 22 23 24 25 26 27 28 29 30 31 32 33 34 35 36 37 38 39 40 41 42 43 44 45 46 47 48 49 50
009
FTUS43 KGRB 272328
TAFRHI
TAF
KRHI 272328Z 2800/2824 12008G15KT P6SM OVC070
     FM280100 13006KT P6SM -SHRA SCT020 OVC035
     FM280400 14003KT 4SM -SHRA BR BKN012 OVC020
      TEMPO 2804/2808 2SM -SHRA BR BKN006
     FM280900 14003KT 1 1/2SM BR VCSH BKN003 OVC015
     FM281500 17007KT 6SM BR VCSH OVC008=

USA.gov is the U.S. government's official web portal to all federal, state and local government web resources and services.